sensor_id;sensor_type;location;lat;lon;timestamp;P1;durP1;ratioP1;P2;durP2;ratioP2
14883;SDS011;7534;50.762;7.000;2023-05-29T00:00:21;9.20;;;4.90;;
14883;SDS011;7534;50.762;7.000;2023-05-29T00:02:47;10.47;;;4.87;;
14883;SDS011;7534;50.762;7.000;2023-05-29T00:05:15;7.77;;;4.77;;
14883;SDS011;7534;50.762;7.000;2023-05-29T00:07:42;7.13;;;4.73;;
14883;SDS011;7534;50.762;7.000;2023-05-29T00:10:09;6.73;;;4.63;;
14883;SDS011;7534;50.762;7.000;2023-05-29T00:12:36;7.30;;;4.30;;
14883;SDS011;7534;50.762;7.000;2023-05-29T00:15:03;5.63;;;4.70;;
14883;SDS011;7534;50.762;7.000;2023-05-29T00:17:30;10.17;;;4.50;;
14883;SDS011;7534;50.762;7.000;2023-05-29T00:20:00;6.63;;;4.70;;
14883;SDS011;7534;50.762;7.000;2023-05-29T00:22:28;8.60;;;5.07;;
14883;SDS011;7534;50.762;7.000;2023-05-29T00:24:54;9.53;;;4.87;;
14883;SDS011;7534;50.762;7.000;2023-05-29T00:27:19;8.60;;;4.87;;
14883;SDS011;7534;50.762;7.000;2023-05-29T00:29:45;6.90;;;4.80;;
14883;SDS011;7534;50.762;7.000;2023-05-29T00:32:11;7.43;;;4.93;;
14883;SDS011;7534;50.762;7.000;2023-05-29T00:34:38;8.77;;;4.83;;
14883;SDS011;7534;50.762;7.000;2023-05-29T00:37:04;6.53;;;4.60;;
14883;SDS011;7534;50.762;7.000;2023-05-29T00:39:30;6.93;;;5.07;;
14883;SDS011;7534;50.762;7.000;2023-05-29T00:41:56;8.20;;;4.90;;
14883;SDS011;7534;50.762;7.000;2023-05-29T00:44:22;9.73;;;4.90;;
14883;SDS011;7534;50.762;7.000;2023-05-29T00:46:48;7.20;;;4.57;;
14883;SDS011;7534;50.762;7.000;2023-05-29T00:49:17;8.03;;;4.90;;
14883;SDS011;7534;50.762;7.000;2023-05-29T00:51:45;8.53;;;4.77;;
14883;SDS011;7534;50.762;7.000;2023-05-29T00:54:11;8.37;;;4.70;;
14883;SDS011;7534;50.762;7.000;2023-05-29T00:56:42;6.93;;;4.80;;
14883;SDS011;7534;50.762;7.000;2023-05-29T00:59:09;8.90;;;5.03;;
14883;SDS011;7534;50.762;7.000;2023-05-29T01:01:36;8.17;;;4.63;;
14883;SDS011;7534;50.762;7.000;2023-05-29T01:04:04;8.53;;;4.30;;
14883;SDS011;7534;50.762;7.000;2023-05-29T01:06:34;8.43;;;4.73;;
14883;SDS011;7534;50.762;7.000;2023-05-29T01:09:00;5.77;;;4.33;;
14883;SDS011;7534;50.762;7.000;2023-05-29T01:14:17;6.43;;;4.37;;
14883;SDS011;7534;50.762;7.000;2023-05-29T01:26:11;6.83;;;4.60;;
14883;SDS011;7534;50.762;7.000;2023-05-29T01:29:07;9.00;;;5.20;;
14883;SDS011;7534;50.762;7.000;2023-05-29T01:31:36;9.93;;;4.90;;
14883;SDS011;7534;50.762;7.000;2023-05-29T01:34:04;8.60;;;4.70;;
14883;SDS011;7534;50.762;7.000;2023-05-29T01:36:30;11.27;;;5.50;;
14883;SDS011;7534;50.762;7.000;2023-05-29T01:38:57;8.03;;;4.90;;
14883;SDS011;7534;50.762;7.000;2023-05-29T01:41:24;8.00;;;4.87;;
14883;SDS011;7534;50.762;7.000;2023-05-29T01:43:52;7.57;;;4.90;;
14883;SDS011;7534;50.762;7.000;2023-05-29T01:46:19;9.20;;;4.97;;
14883;SDS011;7534;50.762;7.000;2023-05-29T01:48:46;7.90;;;4.80;;
14883;SDS011;7534;50.762;7.000;2023-05-29T01:51:12;7.37;;;4.90;;
14883;SDS011;7534;50.762;7.000;2023-05-29T01:53:38;6.77;;;4.90;;
14883;SDS011;7534;50.762;7.000;2023-05-29T01:56:06;6.30;;;4.80;;
14883;SDS011;7534;50.762;7.000;2023-05-29T01:58:34;8.43;;;4.83;;
14883;SDS011;7534;50.762;7.000;2023-05-29T02:01:02;9.13;;;4.90;;
14883;SDS011;7534;50.762;7.000;2023-05-29T02:03:31;7.73;;;4.70;;
14883;SDS011;7534;50.762;7.000;2023-05-29T02:05:57;8.07;;;5.17;;
14883;SDS011;7534;50.762;7.000;2023-05-29T02:08:25;6.80;;;5.07;;
14883;SDS011;7534;50.762;7.000;2023-05-29T02:10:51;7.37;;;5.30;;
14883;SDS011;7534;50.762;7.000;2023-05-29T02:13:17;7.47;;;5.23;;
14883;SDS011;7534;50.762;7.000;2023-05-29T02:15:43;7.13;;;5.30;;
14883;SDS011;7534;50.762;7.000;2023-05-29T02:18:10;8.17;;;5.23;;
14883;SDS011;7534;50.762;7.000;2023-05-29T02:20:39;7.60;;;5.20;;
14883;SDS011;7534;50.762;7.000;2023-05-29T02:23:07;7.20;;;5.30;;
14883;SDS011;7534;50.762;7.000;2023-05-29T02:25:34;6.93;;;5.10;;
14883;SDS011;7534;50.762;7.000;2023-05-29T02:28:00;8.50;;;5.53;;
14883;SDS011;7534;50.762;7.000;2023-05-29T02:30:30;8.13;;;4.90;;
14883;SDS011;7534;50.762;7.000;2023-05-29T02:32:56;7.40;;;5.23;;
14883;SDS011;7534;50.762;7.000;2023-05-29T02:35:22;7.70;;;4.93;;
14883;SDS011;7534;50.762;7.000;2023-05-29T02:37:51;7.17;;;5.00;;
14883;SDS011;7534;50.762;7.000;2023-05-29T02:40:18;6.10;;;4.73;;
14883;SDS011;7534;50.762;7.000;2023-05-29T02:42:44;8.03;;;4.83;;
14883;SDS011;7534;50.762;7.000;2023-05-29T02:45:11;6.73;;;4.73;;
14883;SDS011;7534;50.762;7.000;2023-05-29T02:47:37;7.30;;;4.83;;
14883;SDS011;7534;50.762;7.000;2023-05-29T02:50:03;8.27;;;4.63;;
14883;SDS011;7534;50.762;7.000;2023-05-29T02:52:31;8.43;;;4.90;;
14883;SDS011;7534;50.762;7.000;2023-05-29T02:54:57;6.93;;;4.40;;
14883;SDS011;7534;50.762;7.000;2023-05-29T02:57:23;7.70;;;4.50;;
14883;SDS011;7534;50.762;7.000;2023-05-29T02:59:49;7.70;;;4.30;;
14883;SDS011;7534;50.762;7.000;2023-05-29T03:02:16;7.37;;;4.10;;
14883;SDS011;7534;50.762;7.000;2023-05-29T03:04:42;6.00;;;4.33;;
14883;SDS011;7534;50.762;7.000;2023-05-29T03:07:09;8.00;;;4.50;;
14883;SDS011;7534;50.762;7.000;2023-05-29T03:09:35;4.53;;;4.13;;
14883;SDS011;7534;50.762;7.000;2023-05-29T03:12:01;5.70;;;4.10;;
14883;SDS011;7534;50.762;7.000;2023-05-29T03:14:28;6.43;;;4.43;;
14883;SDS011;7534;50.762;7.000;2023-05-29T03:16:54;5.67;;;4.20;;
14883;SDS011;7534;50.762;7.000;2023-05-29T03:19:20;6.87;;;4.40;;
14883;SDS011;7534;50.762;7.000;2023-05-29T03:21:45;7.70;;;4.30;;
14883;SDS011;7534;50.762;7.000;2023-05-29T03:24:11;6.53;;;4.40;;
14883;SDS011;7534;50.762;7.000;2023-05-29T03:26:40;6.80;;;4.33;;
14883;SDS011;7534;50.762;7.000;2023-05-29T03:29:06;5.27;;;4.13;;
14883;SDS011;7534;50.762;7.000;2023-05-29T03:31:32;8.37;;;4.47;;
14883;SDS011;7534;50.762;7.000;2023-05-29T03:33:58;6.23;;;4.70;;
14883;SDS011;7534;50.762;7.000;2023-05-29T03:36:24;8.13;;;4.47;;
14883;SDS011;7534;50.762;7.000;2023-05-29T03:38:50;6.73;;;4.40;;
14883;SDS011;7534;50.762;7.000;2023-05-29T03:41:16;5.03;;;3.87;;
14883;SDS011;7534;50.762;7.000;2023-05-29T03:43:41;8.03;;;4.50;;
14883;SDS011;7534;50.762;7.000;2023-05-29T03:46:07;6.90;;;4.70;;
14883;SDS011;7534;50.762;7.000;2023-05-29T03:48:33;6.33;;;4.23;;
14883;SDS011;7534;50.762;7.000;2023-05-29T03:51:00;6.60;;;4.20;;
14883;SDS011;7534;50.762;7.000;2023-05-29T03:53:25;8.53;;;4.23;;
14883;SDS011;7534;50.762;7.000;2023-05-29T03:55:51;5.17;;;3.90;;
14883;SDS011;7534;50.762;7.000;2023-05-29T03:58:16;6.50;;;3.93;;
14883;SDS011;7534;50.762;7.000;2023-05-29T04:00:42;6.50;;;4.00;;
14883;SDS011;7534;50.762;7.000;2023-05-29T04:03:08;4.77;;;3.77;;
14883;SDS011;7534;50.762;7.000;2023-05-29T04:05:34;4.77;;;3.83;;
14883;SDS011;7534;50.762;7.000;2023-05-29T04:08:00;5.97;;;4.20;;
14883;SDS011;7534;50.762;7.000;2023-05-29T04:10:29;7.37;;;3.93;;
14883;SDS011;7534;50.762;7.000;2023-05-29T04:12:59;6.63;;;4.03;;
14883;SDS011;7534;50.762;7.000;2023-05-29T04:15:26;7.03;;;4.30;;
14883;SDS011;7534;50.762;7.000;2023-05-29T04:17:53;5.80;;;3.70;;
14883;SDS011;7534;50.762;7.000;2023-05-29T04:20:20;7.23;;;4.00;;
14883;SDS011;7534;50.762;7.000;2023-05-29T04:22:46;8.70;;;4.10;;
14883;SDS011;7534;50.762;7.000;2023-05-29T04:25:12;6.97;;;3.83;;
14883;SDS011;7534;50.762;7.000;2023-05-29T04:27:37;5.10;;;4.00;;
14883;SDS011;7534;50.762;7.000;2023-05-29T04:30:04;4.87;;;3.77;;
14883;SDS011;7534;50.762;7.000;2023-05-29T04:32:31;7.23;;;3.90;;
14883;SDS011;7534;50.762;7.000;2023-05-29T04:34:58;6.77;;;4.10;;
14883;SDS011;7534;50.762;7.000;2023-05-29T04:37:27;7.70;;;4.00;;
14883;SDS011;7534;50.762;7.000;2023-05-29T04:39:55;7.17;;;3.90;;
14883;SDS011;7534;50.762;7.000;2023-05-29T04:42:22;6.20;;;4.03;;
14883;SDS011;7534;50.762;7.000;2023-05-29T04:44:49;6.72;;;3.60;;
14883;SDS011;7534;50.762;7.000;2023-05-29T04:47:17;6.45;;;3.90;;
14883;SDS011;7534;50.762;7.000;2023-05-29T04:49:44;4.50;;;3.17;;
14883;SDS011;7534;50.762;7.000;2023-05-29T04:52:18;6.95;;;3.88;;
14883;SDS011;7534;50.762;7.000;2023-05-29T04:54:43;7.82;;;3.63;;
14883;SDS011;7534;50.762;7.000;2023-05-29T04:57:09;5.35;;;3.40;;
14883;SDS011;7534;50.762;7.000;2023-05-29T04:59:35;6.85;;;3.88;;
14883;SDS011;7534;50.762;7.000;2023-05-29T05:02:01;8.23;;;4.05;;
14883;SDS011;7534;50.762;7.000;2023-05-29T05:04:27;6.50;;;3.95;;
14883;SDS011;7534;50.762;7.000;2023-05-29T05:06:52;8.55;;;3.95;;
14883;SDS011;7534;50.762;7.000;2023-05-29T05:09:18;7.00;;;4.32;;
14883;SDS011;7534;50.762;7.000;2023-05-29T05:11:44;7.20;;;4.25;;
14883;SDS011;7534;50.762;7.000;2023-05-29T05:14:09;6.88;;;4.00;;
14883;SDS011;7534;50.762;7.000;2023-05-29T05:16:35;7.00;;;4.57;;
14883;SDS011;7534;50.762;7.000;2023-05-29T05:19:01;7.97;;;4.47;;
14883;SDS011;7534;50.762;7.000;2023-05-29T05:21:27;9.20;;;4.10;;
14883;SDS011;7534;50.762;7.000;2023-05-29T05:23:56;6.80;;;4.55;;
14883;SDS011;7534;50.762;7.000;2023-05-29T05:26:22;6.15;;;3.95;;
14883;SDS011;7534;50.762;7.000;2023-05-29T05:28:48;9.57;;;4.50;;
14883;SDS011;7534;50.762;7.000;2023-05-29T05:31:13;7.57;;;4.32;;
14883;SDS011;7534;50.762;7.000;2023-05-29T05:33:39;7.85;;;4.75;;
14883;SDS011;7534;50.762;7.000;2023-05-29T05:36:05;8.27;;;4.65;;
14883;SDS011;7534;50.762;7.000;2023-05-29T05:38:31;9.35;;;5.15;;
14883;SDS011;7534;50.762;7.000;2023-05-29T05:40:57;6.05;;;4.40;;
14883;SDS011;7534;50.762;7.000;2023-05-29T05:43:23;9.80;;;4.90;;
14883;SDS011;7534;50.762;7.000;2023-05-29T05:45:49;9.65;;;4.43;;
14883;SDS011;7534;50.762;7.000;2023-05-29T05:48:15;7.82;;;4.75;;
14883;SDS011;7534;50.762;7.000;2023-05-29T05:50:40;11.30;;;4.78;;
14883;SDS011;7534;50.762;7.000;2023-05-29T05:53:06;7.82;;;4.72;;
14883;SDS011;7534;50.762;7.000;2023-05-29T05:55:32;9.32;;;5.30;;
14883;SDS011;7534;50.762;7.000;2023-05-29T05:57:57;8.02;;;4.70;;
14883;SDS011;7534;50.762;7.000;2023-05-29T06:00:23;7.13;;;4.40;;
14883;SDS011;7534;50.762;7.000;2023-05-29T06:02:49;8.88;;;4.88;;
14883;SDS011;7534;50.762;7.000;2023-05-29T06:05:14;8.98;;;4.85;;
14883;SDS011;7534;50.762;7.000;2023-05-29T06:07:40;9.20;;;4.85;;
14883;SDS011;7534;50.762;7.000;2023-05-29T06:10:06;6.97;;;4.40;;
14883;SDS011;7534;50.762;7.000;2023-05-29T06:12:33;9.00;;;5.25;;
14883;SDS011;7534;50.762;7.000;2023-05-29T06:14:59;8.63;;;4.80;;
14883;SDS011;7534;50.762;7.000;2023-05-29T06:17:25;9.98;;;4.70;;
14883;SDS011;7534;50.762;7.000;2023-05-29T06:19:51;9.18;;;4.65;;
14883;SDS011;7534;50.762;7.000;2023-05-29T06:22:18;9.68;;;4.30;;
14883;SDS011;7534;50.762;7.000;2023-05-29T06:24:44;8.97;;;4.33;;
14883;SDS011;7534;50.762;7.000;2023-05-29T06:27:10;8.48;;;4.90;;
14883;SDS011;7534;50.762;7.000;2023-05-29T06:29:36;10.75;;;4.88;;
14883;SDS011;7534;50.762;7.000;2023-05-29T06:32:02;7.82;;;5.22;;
14883;SDS011;7534;50.762;7.000;2023-05-29T06:34:28;9.70;;;5.13;;
14883;SDS011;7534;50.762;7.000;2023-05-29T06:36:53;11.25;;;5.25;;
14883;SDS011;7534;50.762;7.000;2023-05-29T06:39:19;11.30;;;5.45;;
14883;SDS011;7534;50.762;7.000;2023-05-29T06:41:45;9.95;;;5.00;;
14883;SDS011;7534;50.762;7.000;2023-05-29T06:44:11;7.55;;;4.57;;
14883;SDS011;7534;50.762;7.000;2023-05-29T06:46:37;12.63;;;5.38;;
14883;SDS011;7534;50.762;7.000;2023-05-29T06:49:02;8.40;;;5.20;;
14883;SDS011;7534;50.762;7.000;2023-05-29T06:51:28;12.57;;;4.90;;
14883;SDS011;7534;50.762;7.000;2023-05-29T06:53:54;9.15;;;4.90;;
14883;SDS011;7534;50.762;7.000;2023-05-29T06:56:20;9.30;;;4.75;;
14883;SDS011;7534;50.762;7.000;2023-05-29T06:58:47;10.07;;;5.05;;
14883;SDS011;7534;50.762;7.000;2023-05-29T07:01:12;10.70;;;5.10;;
14883;SDS011;7534;50.762;7.000;2023-05-29T07:03:38;7.97;;;5.10;;
14883;SDS011;7534;50.762;7.000;2023-05-29T07:06:04;6.97;;;4.70;;
14883;SDS011;7534;50.762;7.000;2023-05-29T07:08:31;8.52;;;5.80;;
14883;SDS011;7534;50.762;7.000;2023-05-29T07:10:57;7.47;;;5.30;;
14883;SDS011;7534;50.762;7.000;2023-05-29T07:13:23;9.18;;;5.03;;
14883;SDS011;7534;50.762;7.000;2023-05-29T07:15:51;8.20;;;4.82;;
14883;SDS011;7534;50.762;7.000;2023-05-29T07:18:17;6.60;;;4.80;;
14883;SDS011;7534;50.762;7.000;2023-05-29T07:20:43;8.07;;;5.07;;
14883;SDS011;7534;50.762;7.000;2023-05-29T07:23:08;6.28;;;4.68;;
14883;SDS011;7534;50.762;7.000;2023-05-29T07:25:34;8.18;;;4.60;;
14883;SDS011;7534;50.762;7.000;2023-05-29T07:28:00;6.65;;;4.65;;
14883;SDS011;7534;50.762;7.000;2023-05-29T07:30:26;7.40;;;4.80;;
14883;SDS011;7534;50.762;7.000;2023-05-29T07:32:51;8.02;;;5.03;;
14883;SDS011;7534;50.762;7.000;2023-05-29T07:35:17;8.75;;;4.90;;
14883;SDS011;7534;50.762;7.000;2023-05-29T07:37:43;9.27;;;5.18;;
14883;SDS011;7534;50.762;7.000;2023-05-29T07:40:09;9.07;;;4.80;;
14883;SDS011;7534;50.762;7.000;2023-05-29T07:42:35;8.68;;;4.68;;
14883;SDS011;7534;50.762;7.000;2023-05-29T07:45:01;7.65;;;4.65;;
14883;SDS011;7534;50.762;7.000;2023-05-29T07:47:27;6.72;;;4.68;;
14883;SDS011;7534;50.762;7.000;2023-05-29T07:49:52;6.25;;;4.20;;
14883;SDS011;7534;50.762;7.000;2023-05-29T07:52:18;8.20;;;5.43;;
14883;SDS011;7534;50.762;7.000;2023-05-29T07:54:44;6.85;;;4.60;;
14883;SDS011;7534;50.762;7.000;2023-05-29T07:57:10;6.90;;;4.22;;
14883;SDS011;7534;50.762;7.000;2023-05-29T07:59:36;6.55;;;4.63;;
14883;SDS011;7534;50.762;7.000;2023-05-29T08:02:03;9.27;;;4.70;;
14883;SDS011;7534;50.762;7.000;2023-05-29T08:04:29;7.57;;;5.00;;
14883;SDS011;7534;50.762;7.000;2023-05-29T08:06:55;10.25;;;5.30;;
14883;SDS011;7534;50.762;7.000;2023-05-29T08:09:22;7.07;;;4.95;;
14883;SDS011;7534;50.762;7.000;2023-05-29T08:11:48;7.50;;;4.88;;
14883;SDS011;7534;50.762;7.000;2023-05-29T08:14:14;8.13;;;4.80;;
14883;SDS011;7534;50.762;7.000;2023-05-29T08:16:41;9.15;;;4.82;;
14883;SDS011;7534;50.762;7.000;2023-05-29T08:19:07;7.32;;;4.85;;
14883;SDS011;7534;50.762;7.000;2023-05-29T08:21:33;8.23;;;4.63;;
14883;SDS011;7534;50.762;7.000;2023-05-29T08:24:01;8.10;;;4.60;;
14883;SDS011;7534;50.762;7.000;2023-05-29T08:26:30;8.75;;;5.00;;
14883;SDS011;7534;50.762;7.000;2023-05-29T08:28:56;9.00;;;4.80;;
14883;SDS011;7534;50.762;7.000;2023-05-29T08:31:22;8.38;;;4.63;;
14883;SDS011;7534;50.762;7.000;2023-05-29T08:33:52;7.00;;;4.65;;
14883;SDS011;7534;50.762;7.000;2023-05-29T08:36:18;7.30;;;4.43;;
14883;SDS011;7534;50.762;7.000;2023-05-29T08:38:47;8.18;;;4.18;;
14883;SDS011;7534;50.762;7.000;2023-05-29T08:41:17;8.15;;;4.57;;
14883;SDS011;7534;50.762;7.000;2023-05-29T08:44:13;8.52;;;4.07;;
14883;SDS011;7534;50.762;7.000;2023-05-29T08:46:42;9.35;;;4.80;;
14883;SDS011;7534;50.762;7.000;2023-05-29T08:49:09;6.95;;;4.20;;
14883;SDS011;7534;50.762;7.000;2023-05-29T08:51:44;7.53;;;4.60;;
14883;SDS011;7534;50.762;7.000;2023-05-29T08:54:15;7.68;;;4.15;;
14883;SDS011;7534;50.762;7.000;2023-05-29T08:56:42;7.97;;;4.85;;
14883;SDS011;7534;50.762;7.000;2023-05-29T08:59:08;7.40;;;4.28;;
14883;SDS011;7534;50.762;7.000;2023-05-29T09:01:35;8.85;;;4.30;;
14883;SDS011;7534;50.762;7.000;2023-05-29T09:04:03;7.32;;;4.00;;
14883;SDS011;7534;50.762;7.000;2023-05-29T09:06:30;10.07;;;4.18;;
14883;SDS011;7534;50.762;7.000;2023-05-29T09:08:56;7.07;;;4.50;;
14883;SDS011;7534;50.762;7.000;2023-05-29T09:11:22;7.60;;;4.13;;
14883;SDS011;7534;50.762;7.000;2023-05-29T09:13:49;7.70;;;4.30;;
14883;SDS011;7534;50.762;7.000;2023-05-29T09:16:17;8.32;;;4.22;;
14883;SDS011;7534;50.762;7.000;2023-05-29T09:18:44;9.43;;;4.45;;
14883;SDS011;7534;50.762;7.000;2023-05-29T09:21:25;7.57;;;4.15;;
14883;SDS011;7534;50.762;7.000;2023-05-29T09:23:54;7.28;;;4.20;;
14883;SDS011;7534;50.762;7.000;2023-05-29T09:26:21;7.18;;;4.18;;
14883;SDS011;7534;50.762;7.000;2023-05-29T09:28:49;8.10;;;4.22;;
14883;SDS011;7534;50.762;7.000;2023-05-29T09:31:15;7.70;;;4.15;;
14883;SDS011;7534;50.762;7.000;2023-05-29T09:33:49;7.85;;;4.15;;
14883;SDS011;7534;50.762;7.000;2023-05-29T09:36:22;9.15;;;4.32;;
14883;SDS011;7534;50.762;7.000;2023-05-29T09:38:48;10.70;;;4.90;;
14883;SDS011;7534;50.762;7.000;2023-05-29T09:41:21;8.32;;;4.43;;
14883;SDS011;7534;50.762;7.000;2023-05-29T09:43:51;9.27;;;4.15;;
14883;SDS011;7534;50.762;7.000;2023-05-29T09:46:21;7.88;;;4.15;;
14883;SDS011;7534;50.762;7.000;2023-05-29T09:48:46;7.95;;;4.47;;
14883;SDS011;7534;50.762;7.000;2023-05-29T09:51:23;7.50;;;3.90;;
14883;SDS011;7534;50.762;7.000;2023-05-29T09:53:49;8.15;;;4.20;;
14883;SDS011;7534;50.762;7.000;2023-05-29T09:56:18;7.72;;;4.13;;
14883;SDS011;7534;50.762;7.000;2023-05-29T09:58:49;7.13;;;4.03;;
14883;SDS011;7534;50.762;7.000;2023-05-29T10:01:18;8.15;;;4.07;;
14883;SDS011;7534;50.762;7.000;2023-05-29T10:03:45;7.65;;;3.95;;
14883;SDS011;7534;50.762;7.000;2023-05-29T10:06:16;11.05;;;4.22;;
14883;SDS011;7534;50.762;7.000;2023-05-29T10:08:46;9.93;;;3.90;;
14883;SDS011;7534;50.762;7.000;2023-05-29T10:11:19;6.05;;;3.60;;
14883;SDS011;7534;50.762;7.000;2023-05-29T10:13:50;7.53;;;4.15;;
14883;SDS011;7534;50.762;7.000;2023-05-29T10:16:20;9.18;;;4.25;;
14883;SDS011;7534;50.762;7.000;2023-05-29T10:18:57;8.68;;;4.00;;
14883;SDS011;7534;50.762;7.000;2023-05-29T10:21:27;8.13;;;4.20;;
14883;SDS011;7534;50.762;7.000;2023-05-29T10:23:54;8.00;;;4.00;;
14883;SDS011;7534;50.762;7.000;2023-05-29T10:26:22;7.78;;;4.05;;
14883;SDS011;7534;50.762;7.000;2023-05-29T10:29:04;9.50;;;4.10;;
14883;SDS011;7534;50.762;7.000;2023-05-29T10:34:42;10.38;;;4.40;;
14883;SDS011;7534;50.762;7.000;2023-05-29T10:37:42;9.77;;;3.83;;
14883;SDS011;7534;50.762;7.000;2023-05-29T10:40:24;8.30;;;4.13;;
14883;SDS011;7534;50.762;7.000;2023-05-29T10:42:52;6.90;;;3.72;;
14883;SDS011;7534;50.762;7.000;2023-05-29T10:50:48;8.27;;;3.90;;
14883;SDS011;7534;50.762;7.000;2023-05-29T10:53:16;8.82;;;4.05;;
14883;SDS011;7534;50.762;7.000;2023-05-29T10:55:49;8.23;;;3.97;;
14883;SDS011;7534;50.762;7.000;2023-05-29T10:58:26;8.23;;;3.65;;
14883;SDS011;7534;50.762;7.000;2023-05-29T11:00:53;8.23;;;3.92;;
14883;SDS011;7534;50.762;7.000;2023-05-29T11:03:21;8.30;;;3.88;;
14883;SDS011;7534;50.762;7.000;2023-05-29T11:06:00;10.07;;;4.05;;
14883;SDS011;7534;50.762;7.000;2023-05-29T11:08:47;11.70;;;3.90;;
14883;SDS011;7534;50.762;7.000;2023-05-29T11:11:32;8.00;;;3.80;;
14883;SDS011;7534;50.762;7.000;2023-05-29T11:14:02;7.82;;;4.43;;
14883;SDS011;7534;50.762;7.000;2023-05-29T11:18:58;7.30;;;3.83;;
14883;SDS011;7534;50.762;7.000;2023-05-29T11:21:53;7.47;;;3.88;;
14883;SDS011;7534;50.762;7.000;2023-05-29T11:24:41;8.25;;;4.18;;
14883;SDS011;7534;50.762;7.000;2023-05-29T11:27:09;10.73;;;3.80;;
14883;SDS011;7534;50.762;7.000;2023-05-29T11:29:36;8.68;;;4.00;;
14883;SDS011;7534;50.762;7.000;2023-05-29T11:32:06;8.35;;;4.03;;
14883;SDS011;7534;50.762;7.000;2023-05-29T11:34:44;7.75;;;3.97;;
14883;SDS011;7534;50.762;7.000;2023-05-29T11:37:12;7.25;;;3.70;;
14883;SDS011;7534;50.762;7.000;2023-05-29T11:39:39;8.10;;;3.92;;
14883;SDS011;7534;50.762;7.000;2023-05-29T11:42:07;10.68;;;4.07;;
14883;SDS011;7534;50.762;7.000;2023-05-29T11:44:33;9.68;;;3.65;;
14883;SDS011;7534;50.762;7.000;2023-05-29T11:47:02;10.25;;;4.20;;
14883;SDS011;7534;50.762;7.000;2023-05-29T11:49:34;8.40;;;4.05;;
14883;SDS011;7534;50.762;7.000;2023-05-29T11:52:08;9.02;;;3.80;;
14883;SDS011;7534;50.762;7.000;2023-05-29T11:54:42;7.32;;;3.70;;
14883;SDS011;7534;50.762;7.000;2023-05-29T11:57:21;9.32;;;5.45;;
14883;SDS011;7534;50.762;7.000;2023-05-29T11:59:51;7.78;;;4.47;;
14883;SDS011;7534;50.762;7.000;2023-05-29T12:02:17;7.05;;;4.15;;
14883;SDS011;7534;50.762;7.000;2023-05-29T12:04:59;7.93;;;3.72;;
14883;SDS011;7534;50.762;7.000;2023-05-29T12:07:26;6.88;;;4.40;;
14883;SDS011;7534;50.762;7.000;2023-05-29T12:09:52;9.82;;;4.40;;
14883;SDS011;7534;50.762;7.000;2023-05-29T12:12:23;6.97;;;3.70;;
14883;SDS011;7534;50.762;7.000;2023-05-29T12:14:51;7.43;;;4.28;;
14883;SDS011;7534;50.762;7.000;2023-05-29T12:17:18;7.75;;;3.78;;
14883;SDS011;7534;50.762;7.000;2023-05-29T12:19:46;6.75;;;3.63;;
14883;SDS011;7534;50.762;7.000;2023-05-29T12:22:11;7.10;;;3.75;;
14883;SDS011;7534;50.762;7.000;2023-05-29T12:24:37;7.32;;;4.00;;
14883;SDS011;7534;50.762;7.000;2023-05-29T12:27:03;7.95;;;4.25;;
14883;SDS011;7534;50.762;7.000;2023-05-29T12:29:35;7.72;;;3.85;;
14883;SDS011;7534;50.762;7.000;2023-05-29T12:32:01;7.38;;;3.80;;
14883;SDS011;7534;50.762;7.000;2023-05-29T12:34:27;5.85;;;3.45;;
14883;SDS011;7534;50.762;7.000;2023-05-29T12:37:09;8.23;;;3.90;;
14883;SDS011;7534;50.762;7.000;2023-05-29T12:39:38;6.82;;;3.83;;
14883;SDS011;7534;50.762;7.000;2023-05-29T12:42:05;9.77;;;3.95;;
14883;SDS011;7534;50.762;7.000;2023-05-29T12:44:31;7.40;;;3.55;;
14883;SDS011;7534;50.762;7.000;2023-05-29T12:46:57;8.73;;;4.15;;
14883;SDS011;7534;50.762;7.000;2023-05-29T12:49:23;10.02;;;4.10;;
14883;SDS011;7534;50.762;7.000;2023-05-29T12:52:04;6.55;;;3.92;;
14883;SDS011;7534;50.762;7.000;2023-05-29T12:54:36;8.68;;;3.95;;
14883;SDS011;7534;50.762;7.000;2023-05-29T12:57:02;10.50;;;4.18;;
14883;SDS011;7534;50.762;7.000;2023-05-29T12:59:28;8.88;;;4.07;;
14883;SDS011;7534;50.762;7.000;2023-05-29T13:01:54;11.75;;;4.10;;
14883;SDS011;7534;50.762;7.000;2023-05-29T13:04:19;9.10;;;4.10;;
14883;SDS011;7534;50.762;7.000;2023-05-29T13:06:45;8.00;;;3.65;;
14883;SDS011;7534;50.762;7.000;2023-05-29T13:09:11;5.80;;;3.83;;
14883;SDS011;7534;50.762;7.000;2023-05-29T13:11:37;8.30;;;4.18;;
14883;SDS011;7534;50.762;7.000;2023-05-29T13:14:02;7.10;;;3.70;;
14883;SDS011;7534;50.762;7.000;2023-05-29T13:16:28;7.20;;;3.92;;
14883;SDS011;7534;50.762;7.000;2023-05-29T13:18:54;6.28;;;3.88;;
14883;SDS011;7534;50.762;7.000;2023-05-29T13:21:20;8.15;;;4.00;;
14883;SDS011;7534;50.762;7.000;2023-05-29T13:23:45;7.55;;;4.07;;
14883;SDS011;7534;50.762;7.000;2023-05-29T13:26:11;8.13;;;3.92;;
14883;SDS011;7534;50.762;7.000;2023-05-29T13:28:37;7.22;;;4.10;;
14883;SDS011;7534;50.762;7.000;2023-05-29T13:31:03;6.30;;;3.63;;
14883;SDS011;7534;50.762;7.000;2023-05-29T13:33:29;6.97;;;4.10;;
14883;SDS011;7534;50.762;7.000;2023-05-29T13:35:54;8.68;;;3.83;;
14883;SDS011;7534;50.762;7.000;2023-05-29T13:38:20;10.15;;;3.60;;
14883;SDS011;7534;50.762;7.000;2023-05-29T13:40:46;9.65;;;3.70;;
14883;SDS011;7534;50.762;7.000;2023-05-29T13:43:12;6.57;;;3.50;;
14883;SDS011;7534;50.762;7.000;2023-05-29T13:45:37;5.55;;;3.40;;
14883;SDS011;7534;50.762;7.000;2023-05-29T13:48:05;9.35;;;3.60;;
14883;SDS011;7534;50.762;7.000;2023-05-29T13:50:31;7.68;;;3.63;;
14883;SDS011;7534;50.762;7.000;2023-05-29T13:52:56;6.72;;;3.60;;
14883;SDS011;7534;50.762;7.000;2023-05-29T13:55:22;6.82;;;3.60;;
14883;SDS011;7534;50.762;7.000;2023-05-29T13:57:48;7.15;;;3.53;;
14883;SDS011;7534;50.762;7.000;2023-05-29T14:00:14;6.30;;;3.58;;
14883;SDS011;7534;50.762;7.000;2023-05-29T14:02:40;9.55;;;3.70;;
14883;SDS011;7534;50.762;7.000;2023-05-29T14:05:06;6.53;;;3.20;;
14883;SDS011;7534;50.762;7.000;2023-05-29T14:07:32;6.88;;;3.60;;
14883;SDS011;7534;50.762;7.000;2023-05-29T14:09:58;5.65;;;3.67;;
14883;SDS011;7534;50.762;7.000;2023-05-29T14:12:24;7.57;;;3.90;;
14883;SDS011;7534;50.762;7.000;2023-05-29T14:14:49;7.15;;;3.67;;
14883;SDS011;7534;50.762;7.000;2023-05-29T14:17:15;6.15;;;3.70;;
14883;SDS011;7534;50.762;7.000;2023-05-29T14:19:41;5.60;;;3.35;;
14883;SDS011;7534;50.762;7.000;2023-05-29T14:22:07;6.57;;;3.70;;
14883;SDS011;7534;50.762;7.000;2023-05-29T14:24:33;5.40;;;3.50;;
14883;SDS011;7534;50.762;7.000;2023-05-29T14:27:01;8.85;;;4.03;;
14883;SDS011;7534;50.762;7.000;2023-05-29T14:29:27;7.65;;;3.70;;
14883;SDS011;7534;50.762;7.000;2023-05-29T14:31:53;7.88;;;3.70;;
14883;SDS011;7534;50.762;7.000;2023-05-29T14:34:18;8.32;;;3.55;;
14883;SDS011;7534;50.762;7.000;2023-05-29T14:36:44;8.68;;;3.40;;
14883;SDS011;7534;50.762;7.000;2023-05-29T14:39:10;7.53;;;3.20;;
14883;SDS011;7534;50.762;7.000;2023-05-29T14:41:37;7.63;;;3.47;;
14883;SDS011;7534;50.762;7.000;2023-05-29T14:44:03;7.43;;;3.75;;
14883;SDS011;7534;50.762;7.000;2023-05-29T14:46:29;7.10;;;3.75;;
14883;SDS011;7534;50.762;7.000;2023-05-29T14:48:59;6.35;;;3.55;;
14883;SDS011;7534;50.762;7.000;2023-05-29T14:51:26;7.35;;;3.85;;
14883;SDS011;7534;50.762;7.000;2023-05-29T14:53:52;7.47;;;3.90;;
14883;SDS011;7534;50.762;7.000;2023-05-29T14:56:18;7.72;;;3.60;;
14883;SDS011;7534;50.762;7.000;2023-05-29T14:58:45;6.18;;;3.42;;
14883;SDS011;7534;50.762;7.000;2023-05-29T15:01:13;6.65;;;3.80;;
14883;SDS011;7534;50.762;7.000;2023-05-29T15:03:40;7.50;;;3.92;;
14883;SDS011;7534;50.762;7.000;2023-05-29T15:06:06;8.43;;;3.80;;
14883;SDS011;7534;50.762;7.000;2023-05-29T15:08:35;5.97;;;3.42;;
14883;SDS011;7534;50.762;7.000;2023-05-29T15:11:01;6.05;;;3.15;;
14883;SDS011;7534;50.762;7.000;2023-05-29T15:13:31;6.90;;;3.50;;
14883;SDS011;7534;50.762;7.000;2023-05-29T15:15:57;7.43;;;3.80;;
14883;SDS011;7534;50.762;7.000;2023-05-29T15:18:25;6.50;;;3.60;;
14883;SDS011;7534;50.762;7.000;2023-05-29T15:20:57;5.15;;;3.70;;
14883;SDS011;7534;50.762;7.000;2023-05-29T15:23:24;6.05;;;3.45;;
14883;SDS011;7534;50.762;7.000;2023-05-29T15:25:50;6.35;;;3.50;;